createdAt,value
2023-06-04T00:04:49.946Z,18.64
2023-06-04T00:09:51.993Z,18.58
2023-06-04T00:14:54.017Z,18.52
2023-06-04T00:19:56.341Z,18.36
2023-06-04T00:24:58.412Z,18.43
2023-06-04T00:30:00.406Z,18.29
2023-06-04T00:35:02.546Z,18.41
2023-06-04T00:40:06.783Z,18.28
2023-06-04T00:45:10.963Z,18.27
2023-06-04T00:50:13.162Z,18.22
2023-06-04T00:55:15.197Z,18.24
2023-06-04T01:00:17.865Z,18.10
2023-06-04T01:05:31.918Z,17.92
2023-06-04T01:10:35.643Z,17.89
2023-06-04T01:15:37.734Z,17.87
2023-06-04T01:20:43.119Z,17.73
2023-06-04T01:25:46.665Z,17.78
2023-06-04T01:30:49.786Z,17.70
2023-06-04T01:35:52.062Z,17.65
2023-06-04T01:40:57.510Z,17.55
2023-06-04T01:45:59.687Z,17.40
2023-06-04T01:51:02.256Z,17.31
2023-06-04T01:56:04.542Z,17.21
2023-06-04T02:01:06.950Z,17.29
2023-06-04T02:06:09.607Z,17.31
2023-06-04T02:11:11.511Z,17.31
2023-06-04T02:16:13.575Z,17.14
2023-06-04T02:21:15.562Z,16.90
2023-06-04T02:26:17.550Z,17.11
2023-06-04T02:31:19.684Z,17.02
2023-06-04T02:36:21.798Z,17.03
2023-06-04T02:41:25.013Z,16.95
2023-06-04T02:46:27.238Z,16.85
2023-06-04T02:51:29.776Z,16.93
2023-06-04T02:56:32.031Z,16.93
2023-06-04T03:01:34.156Z,16.84
2023-06-04T03:06:36.207Z,16.83
2023-06-04T03:11:38.508Z,16.69
2023-06-04T03:16:41.118Z,16.62
2023-06-04T03:21:43.319Z,16.49
2023-06-04T03:26:45.423Z,16.55
2023-06-04T03:31:47.863Z,16.42
2023-06-04T03:36:50.268Z,16.35
2023-06-04T03:41:52.596Z,16.38
2023-06-04T03:46:57.566Z,16.30
2023-06-04T03:51:59.757Z,16.28
2023-06-04T03:57:03.342Z,16.27
2023-06-04T04:02:06.732Z,16.27
2023-06-04T04:07:09.718Z,16.25
2023-06-04T04:12:11.811Z,16.20
2023-06-04T04:17:15.481Z,16.15
2023-06-04T04:22:21.911Z,16.15
2023-06-04T04:27:26.470Z,16.10
2023-06-04T04:32:28.609Z,16.06
2023-06-04T04:37:31.300Z,15.96
2023-06-04T04:42:34.048Z,15.92
2023-06-04T04:47:38.453Z,15.92
2023-06-04T04:52:40.676Z,15.89
2023-06-04T04:57:43.242Z,15.89
2023-06-04T05:02:45.662Z,15.89
2023-06-04T05:07:48.386Z,15.88
2023-06-04T05:12:58.946Z,15.91
2023-06-04T05:18:08.973Z,15.80
2023-06-04T05:23:13.965Z,15.88
2023-06-04T05:28:18.256Z,15.89
2023-06-04T05:33:20.626Z,15.78
2023-06-04T05:38:33.837Z,15.93
2023-06-04T05:43:40.399Z,15.93
2023-06-04T05:48:44.284Z,16.06
2023-06-04T05:53:47.020Z,16.11
2023-06-04T05:58:55.252Z,16.15
2023-06-04T06:03:59.988Z,16.19
2023-06-04T06:09:04.536Z,16.32
2023-06-04T06:14:07.362Z,16.38
2023-06-04T06:19:09.755Z,16.56
2023-06-04T06:24:11.989Z,16.70
2023-06-04T06:29:14.856Z,16.86
2023-06-04T06:34:17.621Z,16.94
2023-06-04T06:39:19.667Z,16.94
2023-06-04T06:44:21.791Z,17.07
2023-06-04T06:49:23.839Z,17.13
2023-06-04T06:54:25.889Z,17.26
2023-06-04T06:59:28.493Z,17.32
2023-06-04T07:04:32.820Z,17.39
2023-06-04T07:09:35.998Z,17.45
2023-06-04T07:14:38.118Z,17.43
2023-06-04T07:19:40.195Z,17.44
2023-06-04T07:24:42.664Z,17.53
2023-06-04T07:29:45.982Z,17.53
2023-06-04T07:34:48.097Z,17.58
2023-06-04T07:39:50.301Z,17.78
2023-06-04T07:44:52.214Z,17.73
2023-06-04T07:50:02.571Z,17.87
2023-06-04T07:55:06.376Z,17.82
2023-06-04T08:00:09.585Z,17.88
2023-06-04T08:05:17.104Z,18.06
2023-06-04T08:10:19.384Z,18.18
2023-06-04T08:15:21.628Z,18.15
2023-06-04T08:20:27.310Z,18.20
2023-06-04T08:25:30.948Z,18.23
2023-06-04T08:30:36.700Z,18.38
2023-06-04T08:35:38.632Z,18.36
2023-06-04T08:40:40.666Z,18.57
2023-06-04T08:45:44.161Z,18.66
2023-06-04T08:50:49.048Z,18.75
2023-06-04T08:55:52.159Z,19.03
2023-06-04T09:00:54.314Z,19.20
2023-06-04T09:05:57.062Z,19.47
2023-06-04T09:10:59.242Z,20.00
2023-06-04T09:16:02.614Z,20.43
2023-06-04T09:21:07.292Z,21.71
2023-06-04T09:26:10.760Z,22.20
2023-06-04T09:31:18.129Z,23.33
2023-06-04T09:36:20.042Z,23.88
2023-06-04T09:41:25.494Z,24.25
2023-06-04T09:46:28.674Z,24.03
2023-06-04T09:51:32.043Z,23.80
2023-06-04T09:56:41.845Z,24.90
2023-06-04T10:01:44.527Z,24.80
2023-06-04T10:06:46.977Z,24.94
2023-06-04T10:11:52.031Z,26.11
2023-06-04T10:16:54.649Z,26.76
2023-06-04T10:21:56.708Z,27.14
2023-06-04T10:27:01.867Z,26.90
2023-06-04T10:32:04.627Z,26.60
2023-06-04T10:37:07.075Z,27.70
2023-06-04T10:42:09.280Z,28.18
2023-06-04T10:47:23.400Z,27.88
2023-06-04T10:52:27.436Z,28.23
2023-06-04T10:57:29.555Z,28.43
2023-06-04T11:02:31.549Z,28.63
2023-06-04T11:07:50.249Z,28.80
2023-06-04T11:12:52.493Z,29.10
2023-06-04T11:17:56.469Z,29.21
2023-06-04T11:23:00.952Z,28.82
2023-06-04T11:28:04.236Z,28.93
2023-06-04T11:33:07.219Z,27.64
2023-06-04T11:38:10.514Z,28.12
2023-06-04T11:43:12.930Z,28.18
2023-06-04T11:48:15.115Z,28.54
2023-06-04T11:53:17.336Z,28.80
2023-06-04T11:58:19.395Z,28.43
2023-06-04T12:03:34.620Z,28.60
2023-06-04T12:08:55.455Z,28.54
2023-06-04T12:13:58.503Z,28.21
2023-06-04T12:19:11.163Z,28.14
2023-06-04T12:24:17.722Z,27.78
2023-06-04T12:29:21.318Z,27.51
2023-06-04T12:34:24.034Z,27.37
2023-06-04T12:39:26.151Z,26.76
2023-06-04T12:44:28.247Z,26.84
2023-06-04T12:49:30.453Z,26.58
2023-06-04T12:54:33.569Z,26.51
2023-06-04T12:59:35.652Z,26.27
2023-06-04T13:04:37.764Z,26.09
2023-06-04T13:09:40.073Z,26.10
2023-06-04T13:14:42.797Z,25.89
2023-06-04T13:19:44.858Z,25.90
2023-06-04T13:24:46.904Z,25.95
2023-06-04T13:29:48.892Z,26.02
2023-06-04T13:34:50.904Z,26.07
2023-06-04T13:39:52.991Z,26.10
2023-06-04T13:44:55.000Z,26.13
2023-06-04T13:49:57.929Z,25.93
2023-06-04T13:55:00.123Z,25.76
2023-06-04T14:00:12.025Z,25.78
2023-06-04T14:05:19.633Z,25.55
2023-06-04T14:10:21.780Z,25.44
2023-06-04T14:15:23.855Z,25.30
2023-06-04T14:20:26.028Z,25.36
2023-06-04T14:25:28.856Z,25.41
2023-06-04T14:30:31.148Z,25.72
2023-06-04T14:35:34.251Z,25.62
2023-06-04T14:40:36.854Z,25.83
2023-06-04T14:45:40.760Z,25.72
2023-06-04T14:50:43.025Z,25.68
2023-06-04T14:55:45.056Z,25.65
2023-06-04T15:00:47.181Z,25.67
2023-06-04T15:05:49.324Z,25.64
2023-06-04T15:10:51.383Z,25.84
2023-06-04T15:15:53.457Z,25.91
2023-06-04T15:20:55.796Z,25.78
2023-06-04T15:25:57.920Z,25.79
2023-06-04T15:31:00.166Z,25.62
2023-06-04T15:36:02.119Z,25.64
2023-06-04T15:41:04.227Z,25.47
2023-06-04T15:46:06.417Z,25.24
2023-06-04T15:51:08.785Z,25.09
2023-06-04T15:56:14.754Z,25.03
2023-06-04T16:01:17.818Z,25.06
2023-06-04T16:06:22.301Z,25.08
2023-06-04T16:11:26.327Z,25.27
2023-06-04T16:16:28.468Z,25.40
2023-06-04T16:21:30.808Z,25.38
2023-06-04T16:26:32.957Z,25.43
2023-06-04T16:31:35.801Z,25.34
2023-06-04T16:36:38.723Z,25.30
2023-06-04T16:41:41.235Z,25.31
2023-06-04T16:46:43.866Z,25.48
2023-06-04T16:51:45.842Z,25.49
2023-06-04T16:56:50.838Z,25.31
2023-06-04T17:01:52.901Z,25.16
2023-06-04T17:06:56.210Z,25.11
2023-06-04T17:11:58.399Z,25.00
2023-06-04T17:17:00.602Z,25.05
2023-06-04T17:22:05.695Z,24.81
2023-06-04T17:27:09.466Z,24.77
2023-06-04T17:32:12.863Z,24.60
2023-06-04T17:37:15.107Z,24.50
2023-06-04T17:42:17.104Z,24.50
2023-06-04T17:47:19.057Z,24.38
2023-06-04T17:52:21.016Z,24.26
2023-06-04T17:57:23.144Z,24.31
2023-06-04T18:02:26.002Z,24.34
2023-06-04T18:07:28.019Z,24.40
2023-06-04T18:12:30.020Z,24.40
2023-06-04T18:17:32.831Z,24.46
2023-06-04T18:22:35.001Z,24.33
2023-06-04T18:27:37.661Z,24.31
2023-06-04T18:32:39.755Z,24.25
2023-06-04T18:37:42.562Z,24.20
2023-06-04T18:42:45.404Z,24.21
2023-06-04T18:47:49.591Z,24.23
2023-06-04T18:52:51.840Z,24.09
2023-06-04T18:57:53.828Z,24.21
2023-06-04T19:02:56.966Z,24.30
2023-06-04T19:07:58.991Z,24.20
2023-06-04T19:13:02.972Z,23.95
2023-06-04T19:18:08.658Z,23.84
2023-06-04T19:23:10.834Z,23.73
2023-06-04T19:28:16.791Z,23.60
2023-06-04T19:33:18.907Z,23.46
2023-06-04T19:38:20.924Z,23.35
2023-06-04T19:43:23.076Z,23.29
2023-06-04T19:48:25.104Z,23.16
2023-06-04T19:53:27.048Z,23.04
2023-06-04T19:58:29.091Z,22.93
2023-06-04T20:03:33.584Z,22.82
2023-06-04T20:08:38.936Z,22.73
2023-06-04T20:13:42.044Z,22.54
2023-06-04T20:18:43.971Z,22.52
2023-06-04T20:23:47.042Z,22.39
2023-06-04T20:28:53.555Z,22.27
2023-06-04T20:33:58.523Z,22.15
2023-06-04T20:39:01.629Z,22.07
2023-06-04T20:44:03.744Z,21.91
2023-06-04T20:49:05.831Z,21.71
2023-06-04T20:54:07.950Z,21.68
2023-06-04T20:59:10.294Z,21.69
2023-06-04T21:04:14.967Z,21.58
2023-06-04T21:09:17.645Z,21.49
2023-06-04T21:14:20.141Z,21.45
2023-06-04T21:19:22.174Z,21.35
2023-06-04T21:24:25.576Z,21.25
2023-06-04T21:29:27.807Z,21.23
2023-06-04T21:34:29.736Z,21.13
2023-06-04T21:39:31.747Z,21.11
2023-06-04T21:44:33.781Z,20.98
2023-06-04T21:49:36.479Z,20.88
2023-06-04T21:54:38.427Z,20.92
2023-06-04T21:59:40.432Z,20.84
2023-06-04T22:04:42.698Z,20.79
2023-06-04T22:09:44.601Z,20.63
2023-06-04T22:14:46.619Z,20.58
2023-06-04T22:19:48.685Z,20.56
2023-06-04T22:24:50.618Z,20.49
2023-06-04T22:29:52.635Z,20.43
2023-06-04T22:34:54.776Z,20.24
2023-06-04T22:40:00.671Z,20.28
2023-06-04T22:45:02.659Z,20.16
2023-06-04T22:50:09.327Z,20.10
2023-06-04T22:55:12.288Z,20.03
2023-06-04T23:00:15.076Z,20.09
2023-06-04T23:05:17.501Z,19.99
2023-06-04T23:10:19.646Z,19.90
2023-06-04T23:15:24.328Z,19.79
2023-06-04T23:20:31.624Z,19.79
2023-06-04T23:25:34.178Z,19.78
2023-06-04T23:30:36.300Z,19.69
2023-06-04T23:35:38.542Z,19.57
2023-06-04T23:40:40.864Z,19.53
2023-06-04T23:45:42.943Z,19.43
2023-06-04T23:50:45.227Z,19.42
2023-06-04T23:55:47.783Z,19.39
